Time;durP1;ratioP1;P1;durP2;ratioP2;P2;SDS_P1;SDS_P2;PMS_P1;PMS_P2;Temp;Humidity;BMP_temperature;BMP_pressure;BME280_temperature;BME280_humidity;BME280_pressure;Samples;Min_cycle;Max_cycle;Signal;HPM_P1;HPM_P2
2022/02/05 00:40:06;;;;;;;2.03;1.93;;;2.70;99.90;;;;;;5040074;28;20471;-60
2022/02/05 00:42:40;;;;;;;2.10;2.00;;;2.70;99.90;;;;;;5027209;28;20457;-60
2022/02/05 00:45:09;;;;;;;2.20;2.10;;;2.70;99.90;;;;;;5033234;28;20780;-60
2022/02/05 00:47:39;;;;;;;2.20;1.97;;;2.70;99.90;;;;;;5030838;28;20442;-60
2022/02/05 00:50:08;;;;;;;3.10;2.43;;;2.70;99.90;;;;;;5033370;28;20541;-60
2022/02/05 00:52:34;;;;;;;9.33;2.43;;;2.60;99.90;;;;;;5030854;28;20862;-60
2022/02/05 00:55:07;;;;;;;2.40;2.20;;;2.60;99.90;;;;;;5028427;28;20419;-60
2022/02/05 00:57:45;;;;;;;1.80;1.70;;;2.50;99.90;;;;;;5031395;28;20672;-59
2022/02/05 01:00:19;;;;;;;3.57;2.20;;;2.50;99.90;;;;;;5024400;28;20455;-59
2022/02/05 01:02:45;;;;;;;2.13;1.97;;;2.50;99.90;;;;;;5020434;28;20832;-60
2022/02/05 01:05:11;;;;;;;2.50;2.23;;;2.50;99.90;;;;;;5034136;28;20424;-60
2022/02/05 01:07:38;;;;;;;2.80;2.20;;;2.50;99.90;;;;;;5028758;28;20471;-60
2022/02/05 01:10:04;;;;;;;2.43;2.20;;;2.50;99.90;;;;;;5029284;28;20655;-60
2022/02/05 01:12:32;;;;;;;2.33;2.13;;;2.50;99.90;;;;;;5014786;28;20420;-60
2022/02/05 01:15:00;;;;;;;2.40;2.20;;;2.50;99.90;;;;;;5017661;28;20429;-60
2022/02/05 01:17:33;;;;;;;2.20;2.10;;;2.40;99.90;;;;;;5029431;28;20546;-59
2022/02/05 01:20:40;;;;;;;3.07;1.93;;;2.40;99.90;;;;;;5028097;28;20415;-60
2022/02/05 01:23:04;;;;;;;2.03;1.83;;;2.40;99.90;;;;;;5031467;28;20406;-60
2022/02/05 01:25:35;;;;;;;3.13;2.60;;;2.30;99.90;;;;;;5034318;28;20431;-59
2022/02/05 01:28:10;;;;;;;3.60;2.07;;;2.30;99.90;;;;;;5049408;28;20436;-59
2022/02/05 01:30:36;;;;;;;1.93;1.83;;;2.20;99.90;;;;;;5030886;28;20414;-60
2022/02/05 01:33:16;;;;;;;2.73;2.00;;;2.20;99.90;;;;;;5028618;28;20505;-61
2022/02/05 01:36:04;;;;;;;;;;;;;;;;;;;;;
2022/02/05 01:52:26;;;;;;;1.87;1.77;;;2.20;99.90;;;;;;5013856;28;20439;-59
2022/02/05 02:05:30;;;;;;;3.33;2.00;;;2.00;99.90;;;;;;5028574;28;20510;-59
2022/02/05 02:28:48;;;;;;;;;;;;;;;;;;;;;
2022/02/05 02:31:09;;;;;;;2.40;1.97;;;1.70;96.90;;;;;;5025817;28;20594;-59
2022/02/05 02:33:41;;;;;;;2.40;1.83;;;1.60;97.30;;;;;;5027329;28;20440;-59
2022/02/05 02:36:12;;;;;;;2.17;1.97;;;1.60;97.50;;;;;;5034815;28;20421;-59
2022/02/05 02:38:46;;;;;;;3.03;1.93;;;1.60;97.80;;;;;;5023974;28;20521;-59
2022/02/05 02:41:21;;;;;;;3.67;2.07;;;1.60;95.90;;;;;;5029177;28;20466;-59
2022/02/05 02:43:47;;;;;;;2.33;2.00;;;1.60;96.60;;;;;;5029941;28;20425;-59
2022/02/05 02:46:13;;;;;;;3.77;2.10;;;1.50;96.60;;;;;;5026438;28;20503;-60
2022/02/05 02:48:43;;;;;;;2.63;2.43;;;1.50;97.20;;;;;;5036954;28;20261;-60
2022/02/05 02:56:49;;;;;;;3.90;2.30;;;1.40;96.30;;;;;;5041683;28;20220;-60
2022/02/05 03:02:12;;;;;;;4.80;2.37;;;1.30;91.70;;;;;;5001102;28;20980;-59
2022/02/05 03:04:38;;;;;;;4.17;2.50;;;1.20;92.20;;;;;;5024431;28;20432;-59
2022/02/05 03:07:05;;;;;;;2.77;2.57;;;1.20;92.60;;;;;;5028280;28;20546;-60
2022/02/05 03:09:30;;;;;;;5.43;2.77;;;1.20;92.80;;;;;;5020311;28;20473;-59
2022/02/05 03:11:56;;;;;;;4.30;2.77;;;1.20;92.20;;;;;;5034714;28;20447;-59
2022/02/05 03:14:22;;;;;;;4.40;2.93;;;1.10;91.90;;;;;;5032628;28;20173;-59
2022/02/05 03:16:51;;;;;;;5.20;3.07;;;1.10;92.30;;;;;;5023765;28;20195;-59
2022/02/05 03:19:18;;;;;;;3.20;2.90;;;1.10;92.70;;;;;;5009147;28;20175;-59
2022/02/05 03:21:44;;;;;;;5.80;3.07;;;1.10;92.00;;;;;;5022447;28;20469;-59
2022/02/05 03:24:11;;;;;;;6.37;3.20;;;1.00;92.40;;;;;;5025312;28;20421;-59
2022/02/05 03:26:38;;;;;;;7.77;2.93;;;1.00;93.40;;;;;;5027213;28;20455;-59
2022/02/05 03:29:06;;;;;;;5.50;2.97;;;1.10;94.10;;;;;;5027182;28;20495;-60
2022/02/05 03:31:33;;;;;;;3.67;2.80;;;1.00;94.30;;;;;;5017063;28;20516;-59
2022/02/05 03:33:58;;;;;;;4.17;3.07;;;1.00;95.00;;;;;;5029853;28;20465;-59
2022/02/05 03:36:24;;;;;;;5.73;3.17;;;1.00;95.50;;;;;;5026508;28;20509;-60
2022/02/05 03:38:50;;;;;;;7.13;4.03;;;1.00;96.40;;;;;;5034245;28;20234;-59
2022/02/05 03:41:15;;;;;;;14.00;4.10;;;1.00;95.70;;;;;;5041574;28;20178;-59
2022/02/05 03:43:41;;;;;;;9.50;3.57;;;1.00;96.70;;;;;;5028342;28;20243;-59
2022/02/05 03:46:07;;;;;;;7.97;4.00;;;0.90;97.00;;;;;;5027538;28;20209;-59
2022/02/05 03:48:33;;;;;;;6.37;4.07;;;0.90;97.10;;;;;;5031957;28;20202;-60
2022/02/05 03:50:58;;;;;;;6.83;3.50;;;0.90;97.60;;;;;;5021263;28;20198;-60
2022/02/05 03:53:24;;;;;;;5.40;3.50;;;0.90;97.80;;;;;;5015693;28;20473;-59
2022/02/05 03:55:50;;;;;;;8.47;4.47;;;0.90;97.90;;;;;;5032002;28;20313;-60
2022/02/05 03:58:16;;;;;;;6.07;4.10;;;0.80;98.10;;;;;;5028090;28;20194;-59
2022/02/05 04:00:42;;;;;;;6.13;3.50;;;0.80;98.40;;;;;;5022139;28;20851;-59
2022/02/05 04:03:07;;;;;;;7.90;3.30;;;0.70;98.70;;;;;;5027217;28;20273;-59
2022/02/05 04:05:34;;;;;;;6.80;3.70;;;0.70;99.30;;;;;;5033764;28;20288;-59
2022/02/05 04:08:00;;;;;;;13.60;3.57;;;0.70;99.90;;;;;;5025441;28;20213;-59
2022/02/05 04:10:30;;;;;;;6.23;3.90;;;0.60;99.90;;;;;;5026246;28;21036;-59
2022/02/05 04:16:08;;;;;;;4.40;3.33;;;0.60;99.90;;;;;;5028898;28;20483;-59
2022/02/05 04:18:34;;;;;;;6.03;4.13;;;0.50;99.90;;;;;;5022080;28;20454;-59
2022/02/05 04:21:01;;;;;;;13.63;4.77;;;0.50;99.90;;;;;;5011641;28;20424;-59
2022/02/05 04:23:27;;;;;;;8.07;4.80;;;0.50;99.90;;;;;;5018013;28;20183;-59
2022/02/05 04:25:53;;;;;;;7.30;4.77;;;0.40;99.90;;;;;;5035665;28;20440;-59
2022/02/05 04:28:18;;;;;;;6.60;4.30;;;0.40;99.90;;;;;;5029199;28;20193;-59
2022/02/05 04:30:44;;;;;;;12.67;4.60;;;0.40;99.90;;;;;;5017819;28;20229;-60
2022/02/05 04:33:10;;;;;;;10.63;4.70;;;0.30;99.90;;;;;;5018009;28;20204;-59
2022/02/05 04:35:35;;;;;;;9.00;4.60;;;0.30;99.90;;;;;;5031715;28;20205;-59
2022/02/05 04:38:04;;;;;;;6.73;4.70;;;0.30;99.90;;;;;;5024186;28;20202;-59
2022/02/05 04:40:35;;;;;;;7.97;4.63;;;0.30;99.90;;;;;;5031590;28;20186;-60
2022/02/05 05:09:09;;;;;;;5.37;3.07;;;0.00;99.90;;;;;;5030485;28;20229;-59
2022/02/05 05:11:46;;;;;;;3.83;2.80;;;0.00;99.90;;;;;;5029321;28;20208;-59
2022/02/05 05:22:22;;;;;;;6.90;3.07;;;0.00;99.90;;;;;;5018548;28;20535;-59
2022/02/05 05:24:48;;;;;;;7.40;3.40;;;0.10;99.90;;;;;;5032552;28;20520;-59
2022/02/05 05:27:14;;;;;;;5.07;2.77;;;0.20;99.90;;;;;;5048576;28;20194;-59
2022/02/05 05:29:39;;;;;;;4.27;2.83;;;0.20;99.90;;;;;;5033002;28;20189;-58
2022/02/05 05:32:06;;;;;;;4.70;2.90;;;0.10;99.80;;;;;;5030754;28;20683;-59
2022/02/05 05:34:31;;;;;;;4.30;2.63;;;0.10;99.70;;;;;;5029735;28;20169;-59
2022/02/05 05:36:58;;;;;;;6.13;2.90;;;0.10;99.80;;;;;;5025897;28;20519;-59
2022/02/05 05:39:23;;;;;;;6.53;2.47;;;0.10;99.90;;;;;;5027056;28;20696;-59
2022/02/05 05:41:49;;;;;;;7.07;2.60;;;0.10;99.60;;;;;;5028876;28;20440;-59
2022/02/05 05:49:57;;;;;;;4.13;2.40;;;0.10;98.10;;;;;;5035769;28;20459;-59
2022/02/05 05:52:23;;;;;;;4.00;2.70;;;0.20;98.40;;;;;;5040736;28;20521;-59
2022/02/05 05:54:49;;;;;;;3.50;2.53;;;0.20;98.10;;;;;;5028923;28;20941;-59
2022/02/05 05:57:15;;;;;;;7.67;3.03;;;0.20;98.20;;;;;;5028196;28;20482;-60
2022/02/05 05:59:43;;;;;;;3.40;2.33;;;0.20;97.80;;;;;;5024136;28;20977;-59
2022/02/05 06:02:10;;;;;;;5.10;2.50;;;0.20;97.00;;;;;;5035083;28;20948;-60
2022/02/05 06:04:36;;;;;;;2.50;2.27;;;0.20;96.50;;;;;;5033521;28;20500;-59
2022/02/05 06:07:03;;;;;;;2.73;2.47;;;0.20;96.40;;;;;;5028333;28;20983;-59
2022/02/05 06:09:29;;;;;;;4.43;2.00;;;0.20;95.20;;;;;;5021160;28;20827;-59
2022/02/05 06:11:54;;;;;;;4.50;2.00;;;0.20;94.00;;;;;;5037128;28;20980;-58
2022/02/05 06:14:24;;;;;;;3.13;2.10;;;0.20;94.20;;;;;;5029340;28;20169;-59
2022/02/05 06:16:56;;;;;;;3.30;1.90;;;0.20;93.60;;;;;;5021668;28;20202;-59
2022/02/05 06:19:22;;;;;;;6.60;2.23;;;0.20;93.80;;;;;;5026011;28;20428;-60
2022/02/05 06:21:47;;;;;;;4.20;2.33;;;0.20;93.80;;;;;;5026362;28;20955;-59
2022/02/05 06:24:14;;;;;;;3.90;1.90;;;0.20;94.10;;;;;;5019357;28;20471;-59
2022/02/05 06:26:39;;;;;;;2.50;2.00;;;0.20;93.30;;;;;;5029689;28;20251;-60
2022/02/05 06:29:05;;;;;;;5.63;2.30;;;0.30;93.60;;;;;;5025786;28;20436;-60
2022/02/05 06:31:31;;;;;;;2.30;2.00;;;0.30;94.20;;;;;;5030173;28;20257;-60
2022/02/05 06:33:57;;;;;;;5.13;2.10;;;0.30;94.50;;;;;;5021409;28;20203;-60
2022/02/05 06:36:24;;;;;;;5.23;3.10;;;0.20;94.60;;;;;;5027501;28;20174;-60
2022/02/05 06:38:49;;;;;;;5.53;2.07;;;0.20;94.90;;;;;;5026486;28;20451;-61
2022/02/05 06:41:16;;;;;;;4.23;2.13;;;0.20;95.10;;;;;;5029352;28;20964;-60
2022/02/05 06:43:42;;;;;;;5.90;2.63;;;0.20;95.60;;;;;;5029434;28;20174;-59
2022/02/05 06:46:08;;;;;;;8.80;4.00;;;0.20;95.90;;;;;;5024918;28;20424;-59
2022/02/05 06:48:33;;;;;;;11.03;5.23;;;0.20;96.40;;;;;;5028133;28;20448;-59
2022/02/05 06:50:59;;;;;;;6.17;3.70;;;0.20;96.80;;;;;;5024650;28;20451;-60
2022/02/05 06:53:24;;;;;;;6.47;2.60;;;0.20;96.70;;;;;;5028602;28;20169;-61
2022/02/05 06:55:50;;;;;;;6.30;2.57;;;0.20;96.80;;;;;;5027325;28;20277;-60
2022/02/05 06:58:16;;;;;;;4.50;2.10;;;0.20;97.20;;;;;;5025791;28;21194;-60
2022/02/05 07:00:42;;;;;;;5.23;2.80;;;0.20;97.20;;;;;;5025193;28;20307;-61
2022/02/05 07:03:10;;;;;;;6.23;1.97;;;0.20;97.50;;;;;;5027561;28;20216;-60
2022/02/05 07:05:36;;;;;;;14.03;2.50;;;0.20;97.30;;;;;;5025942;28;20189;-60
2022/02/05 07:08:01;;;;;;;3.13;2.00;;;0.20;97.30;;;;;;5020138;28;20836;-60
2022/02/05 07:10:27;;;;;;;4.17;2.10;;;0.20;97.20;;;;;;5028303;28;20197;-61
2022/02/05 07:15:26;;;;;;;9.03;3.90;;;0.20;97.10;;;;;;5024089;28;20800;-62
2022/02/05 07:31:01;;;;;;;4.77;2.57;;;0.10;98.50;;;;;;5028723;28;20455;-61
2022/02/05 07:33:27;;;;;;;10.40;3.47;;;0.10;99.10;;;;;;5025323;28;20519;-59
2022/02/05 07:35:53;;;;;;;7.70;3.97;;;0.10;99.20;;;;;;5024158;28;20501;-62
2022/02/05 07:38:19;;;;;;;7.83;5.10;;;0.10;99.40;;;;;;5022884;28;20447;-61
2022/02/05 07:40:45;;;;;;;7.10;5.30;;;0.10;99.50;;;;;;5024631;28;20433;-61
2022/02/05 07:43:10;;;;;;;7.50;4.33;;;0.10;99.70;;;;;;5027351;28;20655;-62
2022/02/05 07:45:36;;;;;;;6.10;4.03;;;0.10;99.90;;;;;;5024722;28;20181;-62
2022/02/05 07:48:02;;;;;;;7.70;3.17;;;0.10;99.90;;;;;;5037513;28;20205;-59
2022/02/05 07:50:27;;;;;;;4.47;3.43;;;0.20;99.90;;;;;;5022235;28;20243;-62
2022/02/05 07:52:53;;;;;;;5.00;3.40;;;0.30;99.90;;;;;;5030897;28;20172;-62
2022/02/05 07:55:19;;;;;;;8.43;4.50;;;0.30;99.90;;;;;;5022828;28;20224;-61
2022/02/05 07:57:44;;;;;;;4.27;3.10;;;0.40;99.80;;;;;;5023994;28;20661;-61
2022/02/05 08:00:10;;;;;;;5.53;3.00;;;0.40;99.10;;;;;;5029639;28;20190;-61
2022/02/05 08:02:36;;;;;;;6.60;3.30;;;0.50;98.80;;;;;;5025932;28;20174;-60
2022/02/05 08:05:02;;;;;;;11.43;3.80;;;0.50;99.00;;;;;;5026257;28;20447;-59
2022/02/05 08:07:28;;;;;;;11.63;3.83;;;0.50;98.50;;;;;;5024257;28;20542;-61
2022/02/05 08:10:01;;;;;;;8.27;4.73;;;0.50;98.60;;;;;;5026110;28;20447;-61
2022/02/05 08:12:28;;;;;;;9.00;5.17;;;0.60;98.60;;;;;;5023609;28;20480;-62
2022/02/05 08:14:56;;;;;;;5.40;3.40;;;0.60;99.30;;;;;;5025175;28;20435;-62
2022/02/05 08:17:26;;;;;;;5.83;3.60;;;0.60;99.30;;;;;;5029957;28;20453;-60
2022/02/05 08:19:52;;;;;;;4.70;2.90;;;0.60;99.00;;;;;;5026569;28;20428;-61
2022/02/05 08:22:18;;;;;;;6.67;2.73;;;0.60;99.30;;;;;;5028408;28;20478;-61
2022/02/05 08:24:45;;;;;;;2.27;2.07;;;0.70;98.40;;;;;;5026486;28;20777;-61
2022/02/05 08:27:10;;;;;;;4.40;2.50;;;0.70;97.70;;;;;;5025081;28;20455;-61
2022/02/05 08:29:40;;;;;;;6.57;3.03;;;0.80;97.50;;;;;;5028144;28;20444;-61
2022/02/05 08:32:06;;;;;;;3.50;2.47;;;0.80;97.10;;;;;;5028190;28;20910;-61
2022/02/05 08:34:32;;;;;;;4.73;2.50;;;0.80;96.30;;;;;;5029410;28;20432;-61
2022/02/05 08:36:59;;;;;;;4.30;2.53;;;0.90;96.80;;;;;;5026128;28;20443;-60
2022/02/05 08:39:24;;;;;;;4.23;2.93;;;0.90;96.50;;;;;;5026131;28;21197;-62
2022/02/05 08:41:50;;;;;;;7.60;2.90;;;1.00;95.90;;;;;;5026338;28;20608;-66
2022/02/05 08:44:16;;;;;;;11.53;5.37;;;1.00;95.60;;;;;;5023899;28;20268;-61
2022/02/05 08:46:42;;;;;;;6.27;2.80;;;1.00;95.20;;;;;;5024424;28;20584;-60
2022/02/05 08:49:08;;;;;;;7.43;2.80;;;1.10;95.00;;;;;;5023800;28;20198;-61
2022/02/05 08:51:34;;;;;;;3.50;2.33;;;1.20;93.70;;;;;;5025724;28;20189;-62
2022/02/05 08:54:00;;;;;;;11.00;2.10;;;1.20;93.70;;;;;;5026397;28;20448;-61
2022/02/05 08:56:27;;;;;;;2.80;2.20;;;1.30;93.20;;;;;;5023968;28;20441;-61
2022/02/05 08:58:55;;;;;;;5.40;3.17;;;1.30;92.50;;;;;;5024266;28;20435;-61
2022/02/05 09:01:29;;;;;;;7.80;3.40;;;1.40;92.80;;;;;;5024800;28;20436;-61
2022/02/05 09:04:07;;;;;;;;;;;;;;;;;;;;;
2022/02/05 09:06:32;;;;;;;9.43;2.93;;;1.50;91.30;;;;;;5026287;28;20439;-61
2022/02/05 09:09:11;;;;;;;5.60;2.77;;;1.50;91.00;;;;;;5021293;28;20495;-61
2022/02/05 09:16:52;;;;;;;4.80;2.83;;;1.70;89.30;;;;;;5022882;28;20511;-60
2022/02/05 09:19:18;;;;;;;7.10;2.60;;;1.80;88.50;;;;;;5025557;28;20505;-63
2022/02/05 09:21:44;;;;;;;3.20;2.33;;;1.80;87.80;;;;;;5023295;28;20799;-62
2022/02/05 09:24:09;;;;;;;4.40;2.77;;;2.00;85.50;;;;;;5027789;28;20182;-61
2022/02/05 09:26:38;;;;;;;3.87;2.37;;;2.00;84.80;;;;;;5023872;28;20197;-60
2022/02/05 09:29:18;;;;;;;6.63;2.20;;;2.10;83.40;;;;;;5025468;28;20178;-61
2022/02/05 09:31:44;;;;;;;3.43;2.90;;;2.20;81.60;;;;;;5022797;28;20975;-62
2022/02/05 09:34:10;;;;;;;10.00;2.90;;;2.30;80.40;;;;;;5022986;28;20443;-62
2022/02/05 09:36:39;;;;;;;3.53;2.17;;;2.40;79.50;;;;;;5027734;28;20466;-60
2022/02/05 09:39:06;;;;;;;2.67;2.20;;;2.40;78.40;;;;;;5021056;28;20199;-62
2022/02/05 09:41:31;;;;;;;8.20;2.60;;;2.60;76.80;;;;;;5024516;28;20433;-61
2022/02/05 09:43:57;;;;;;;5.40;2.73;;;2.70;75.80;;;;;;5020017;28;20433;-61
2022/02/05 09:46:23;;;;;;;2.50;2.10;;;2.80;73.90;;;;;;5021589;28;20279;-59
2022/02/05 09:48:51;;;;;;;2.87;1.80;;;2.80;72.60;;;;;;5019668;28;20217;-60
2022/02/05 09:51:34;;;;;;;3.80;1.80;;;2.90;71.70;;;;;;5019224;28;21182;-61
2022/02/05 09:54:04;;;;;;;2.43;1.80;;;3.00;71.00;;;;;;5024098;28;20425;-61
2022/02/05 09:56:36;;;;;;;3.27;1.87;;;3.10;70.00;;;;;;5025278;28;20927;-61
2022/02/05 09:59:02;;;;;;;3.33;1.97;;;3.20;69.70;;;;;;5027788;28;20426;-61
2022/02/05 10:01:32;;;;;;;4.63;2.27;;;3.30;69.70;;;;;;5020515;28;20439;-61
2022/02/05 10:03:58;;;;;;;5.10;2.80;;;3.40;68.80;;;;;;5019855;28;20436;-62
2022/02/05 10:06:32;;;;;;;3.70;1.80;;;3.60;67.50;;;;;;5019656;28;20561;-62
2022/02/05 10:09:07;;;;;;;3.87;1.97;;;3.60;65.90;;;;;;5020572;28;20581;-61
2022/02/05 10:11:50;;;;;;;6.67;2.07;;;3.70;66.60;;;;;;5024378;28;20492;-62
2022/02/05 10:14:22;;;;;;;4.53;2.20;;;3.80;65.60;;;;;;5021002;28;20939;-60
2022/02/05 10:16:53;;;;;;;2.70;1.80;;;4.00;66.00;;;;;;5022335;28;20462;-63
2022/02/05 10:19:20;;;;;;;2.90;1.87;;;4.10;66.30;;;;;;5019178;28;20455;-59
2022/02/05 10:22:02;;;;;;;6.40;2.10;;;4.20;66.60;;;;;;5023019;28;20480;-58
2022/02/05 10:24:29;;;;;;;4.30;2.60;;;4.40;64.80;;;;;;5017244;28;20437;-62
2022/02/05 10:26:55;;;;;;;3.80;2.10;;;4.40;62.30;;;;;;5024251;28;20497;-60
2022/02/05 10:29:21;;;;;;;8.03;2.27;;;4.40;61.20;;;;;;5019455;28;20455;-61
2022/02/05 10:35:08;;;;;;;4.27;1.90;;;4.50;61.40;;;;;;5024951;28;20160;-61
2022/02/05 10:37:43;;;;;;;7.07;2.20;;;4.60;60.50;;;;;;5017716;28;20470;-61
2022/02/05 10:40:14;;;;;;;3.20;2.20;;;4.60;59.20;;;;;;5023291;28;20434;-60
2022/02/05 10:43:03;;;;;;;4.10;1.80;;;4.60;60.20;;;;;;5024663;28;21070;-62
2022/02/05 10:45:40;;;;;;;2.40;1.70;;;4.70;60.00;;;;;;5023102;28;20446;-61
2022/02/05 10:48:07;;;;;;;7.67;2.20;;;4.80;59.20;;;;;;5023257;28;20473;-61
2022/02/05 10:50:34;;;;;;;4.67;1.90;;;4.90;58.90;;;;;;5025763;28;20442;-61
2022/02/05 10:53:27;;;;;;;4.90;2.40;;;4.90;58.00;;;;;;5018214;28;21447;-62
2022/02/05 10:58:48;;;;;;;3.20;1.53;;;5.10;57.60;;;;;;5014633;28;21008;-60
2022/02/05 11:07:05;;;;;;;3.27;1.87;;;5.50;56.50;;;;;;5015850;28;20689;-61
2022/02/05 11:09:32;;;;;;;5.60;2.23;;;5.60;56.20;;;;;;5019901;28;20434;-60
2022/02/05 11:19:58;;;;;;;4.83;1.90;;;6.00;55.20;;;;;;5020567;28;20437;-62
2022/02/05 11:22:24;;;;;;;3.20;1.87;;;6.10;54.50;;;;;;5031790;28;20458;-61
2022/02/05 11:24:51;;;;;;;3.53;1.77;;;6.30;54.00;;;;;;5022419;28;20505;-62
2022/02/05 11:27:17;;;;;;;4.83;2.00;;;6.40;53.80;;;;;;5022658;28;20483;-61
2022/02/05 11:29:43;;;;;;;3.03;2.00;;;6.40;52.30;;;;;;5025110;28;20484;-61
2022/02/05 11:32:31;;;;;;;9.27;1.80;;;6.50;53.20;;;;;;5022848;28;20820;-60
2022/02/05 11:35:10;;;;;;;4.83;1.97;;;6.70;53.00;;;;;;5023822;28;20187;-60
2022/02/05 11:38:09;;;;;;;8.60;2.57;;;6.90;52.60;;;;;;5021797;28;20461;-61
2022/02/05 11:40:54;;;;;;;3.80;2.00;;;7.20;52.20;;;;;;4983738;28;20418;-61
2022/02/05 11:43:28;;;;;;;1.77;1.60;;;7.40;51.00;;;;;;5026567;28;20437;-61
2022/02/05 11:46:11;;;;;;;3.57;1.47;;;7.60;49.90;;;;;;5026385;28;20429;-60
2022/02/05 11:48:57;;;;;;;2.77;1.73;;;7.70;50.00;;;;;;5025266;28;20442;-61
2022/02/05 11:51:29;;;;;;;2.27;1.60;;;7.80;50.10;;;;;;5026660;28;20473;-60
2022/02/05 11:53:55;;;;;;;4.83;1.60;;;7.90;49.70;;;;;;5025150;28;20433;-61
2022/02/05 11:56:34;;;;;;;2.00;1.70;;;8.10;49.50;;;;;;5020930;28;20480;-61
2022/02/05 11:59:00;;;;;;;4.47;1.60;;;8.20;48.90;;;;;;5029004;28;20903;-59
2022/02/05 12:01:36;;;;;;;4.07;2.10;;;8.10;48.60;;;;;;5025209;28;20447;-62
2022/02/05 12:04:11;;;;;;;6.93;1.87;;;8.10;49.10;;;;;;5026350;28;20468;-61
2022/02/05 12:07:05;;;;;;;2.43;1.80;;;8.50;49.10;;;;;;5024735;28;21005;-61
2022/02/05 12:09:44;;;;;;;8.13;2.33;;;9.00;49.00;;;;;;5025896;28;20968;-58
2022/02/05 12:12:49;;;;;;;2.67;1.90;;;9.70;48.20;;;;;;5035543;28;20541;-60
2022/02/05 12:15:16;;;;;;;3.60;1.77;;;10.30;45.70;;;;;;5020475;28;20942;-56
2022/02/05 12:20:51;;;;;;;3.00;1.80;;;11.40;42.80;;;;;;5020763;28;20448;-59
2022/02/05 12:25:58;;;;;;;3.03;2.00;;;11.50;40.80;;;;;;5019891;28;20758;-61
2022/02/05 12:28:36;;;;;;;4.23;1.90;;;11.20;40.80;;;;;;5018991;28;20446;-62
2022/02/05 12:31:18;;;;;;;4.30;1.97;;;11.20;41.20;;;;;;5024544;28;20813;-62
2022/02/05 12:33:48;;;;;;;3.53;1.80;;;11.40;40.30;;;;;;5031322;28;20458;-62
2022/02/05 12:36:25;;;;;;;3.83;1.60;;;11.60;40.60;;;;;;5018802;28;20424;-61
2022/02/05 12:38:53;;;;;;;2.00;1.80;;;11.90;40.70;;;;;;5020252;28;20417;-61
2022/02/05 12:41:21;;;;;;;2.53;1.83;;;12.30;39.50;;;;;;5025289;28;20427;-60
2022/02/05 12:43:59;;;;;;;2.40;1.67;;;12.40;39.00;;;;;;5023281;28;20529;-61
2022/02/05 12:46:41;;;;;;;4.40;1.80;;;12.80;39.40;;;;;;5026536;28;20509;-61
2022/02/05 12:49:16;;;;;;;2.83;1.70;;;13.10;37.90;;;;;;5035716;28;20434;-60
2022/02/05 12:51:43;;;;;;;3.30;1.40;;;13.20;36.80;;;;;;5017525;28;20484;-61
2022/02/05 12:54:14;;;;;;;2.03;1.30;;;13.00;35.60;;;;;;5021030;28;20567;-62
2022/02/05 12:56:42;;;;;;;5.97;1.87;;;12.30;36.90;;;;;;5020297;28;20789;-62
2022/02/05 12:59:13;;;;;;;3.03;1.30;;;11.40;37.50;;;;;;5025730;28;20436;-61
2022/02/05 13:01:57;;;;;;;3.83;1.27;;;10.40;38.30;;;;;;5025276;28;20615;-60
2022/02/05 13:04:36;;;;;;;3.17;1.47;;;9.50;40.70;;;;;;5026238;28;20461;-61
2022/02/05 13:07:11;;;;;;;4.70;1.47;;;8.70;42.20;;;;;;5018704;28;20473;-61
2022/02/05 13:09:47;;;;;;;6.17;1.70;;;8.20;43.10;;;;;;5024910;28;20762;-61
2022/02/05 13:12:15;;;;;;;4.20;1.60;;;7.80;44.10;;;;;;5022247;28;20830;-61
2022/02/05 13:14:55;;;;;;;3.83;1.47;;;7.40;45.00;;;;;;5022813;28;20426;-61
2022/02/05 13:36:35;;;;;;;2.90;1.67;;;7.70;45.50;;;;;;4982087;28;20607;-58
2022/02/05 13:41:55;;;;;;;3.30;1.83;;;7.90;45.30;;;;;;4980269;28;20438;-56
2022/02/05 13:44:24;;;;;;;2.97;1.87;;;8.00;45.00;;;;;;4977923;28;20428;-57
2022/02/05 13:47:11;;;;;;;3.00;2.10;;;8.20;45.10;;;;;;4981411;28;20824;-57
2022/02/05 13:49:38;;;;;;;3.70;2.13;;;8.90;45.40;;;;;;4976792;28;20431;-58
2022/02/05 13:52:07;;;;;;;2.80;1.90;;;10.30;43.40;;;;;;4981678;28;20888;-53
2022/02/05 13:54:35;;;;;;;7.63;2.10;;;11.70;40.90;;;;;;4984912;28;20428;-56
2022/02/05 13:57:01;;;;;;;3.00;1.60;;;13.00;37.50;;;;;;4975942;28;20566;-55
2022/02/05 13:59:28;;;;;;;4.80;1.60;;;13.70;35.70;;;;;;4989910;28;20423;-56
2022/02/05 14:01:54;;;;;;;2.20;1.50;;;13.90;33.60;;;;;;4984204;28;21489;-56
2022/02/05 14:04:23;;;;;;;3.10;1.53;;;14.10;33.70;;;;;;4984589;28;20536;-55
2022/02/05 14:06:57;;;;;;;3.30;1.97;;;14.40;33.30;;;;;;4986308;28;20821;-55
2022/02/05 14:09:35;;;;;;;3.97;1.30;;;14.90;33.80;;;;;;4984912;28;20436;-56
2022/02/05 14:12:19;;;;;;;2.07;1.40;;;15.50;32.40;;;;;;4978668;28;20459;-57
2022/02/05 14:15:03;;;;;;;1.50;1.30;;;15.70;30.90;;;;;;4978052;28;20445;-57
2022/02/05 14:17:29;;;;;;;3.10;1.10;;;15.80;30.80;;;;;;4978374;28;20479;-59
2022/02/05 14:20:10;;;;;;;5.60;1.30;;;15.60;31.00;;;;;;4977175;28;20813;-55
2022/02/05 14:22:38;;;;;;;2.60;1.20;;;15.20;32.20;;;;;;4980433;28;20184;-56
2022/02/05 14:25:16;;;;;;;2.17;1.10;;;14.70;31.80;;;;;;4981556;28;20466;-55
2022/02/05 14:28:01;;;;;;;2.77;1.60;;;14.40;32.30;;;;;;4981205;28;20969;-52
2022/02/05 14:30:29;;;;;;;1.87;1.20;;;14.10;32.40;;;;;;4988627;28;20909;-54
2022/02/05 14:32:57;;;;;;;7.00;1.73;;;14.10;32.80;;;;;;4986003;28;20464;-56
2022/02/05 14:40:46;;;;;;;2.40;1.40;;;15.50;30.90;;;;;;4984496;28;20479;-57
2022/02/05 14:43:18;;;;;;;1.50;1.13;;;16.20;29.60;;;;;;4984660;28;20413;-54
2022/02/05 14:45:45;;;;;;;2.40;1.47;;;16.10;28.40;;;;;;4983260;28;20455;-53
2022/02/05 14:48:11;;;;;;;3.03;1.37;;;15.10;28.20;;;;;;4993531;28;20502;-53
2022/02/05 14:50:37;;;;;;;3.50;1.50;;;13.60;29.10;;;;;;4979545;28;20420;-55
2022/02/05 14:53:04;;;;;;;2.80;1.40;;;12.20;30.50;;;;;;4985279;28;20420;-57
2022/02/05 14:55:31;;;;;;;2.63;1.30;;;10.90;32.50;;;;;;4983982;28;20474;-57
2022/02/05 14:57:57;;;;;;;1.70;1.47;;;9.80;34.80;;;;;;4992567;28;20531;-57
2022/02/05 15:00:23;;;;;;;3.47;1.43;;;8.90;36.50;;;;;;4979649;28;20762;-56
2022/02/05 15:02:50;;;;;;;2.33;1.30;;;8.30;38.20;;;;;;4991466;28;20188;-58
2022/02/05 15:05:16;;;;;;;1.40;1.30;;;7.80;39.50;;;;;;4980332;28;20432;-56
2022/02/05 15:07:44;;;;;;;1.73;1.63;;;7.40;40.80;;;;;;4974531;28;20451;-58
2022/02/05 15:10:14;;;;;;;1.83;1.60;;;7.10;41.70;;;;;;4973732;28;20465;-59
2022/02/05 15:12:41;;;;;;;2.07;1.70;;;6.90;42.50;;;;;;4984124;28;20929;-59
2022/02/05 15:15:14;;;;;;;5.40;1.90;;;6.70;43.40;;;;;;4973811;28;20524;-57
2022/02/05 15:17:44;;;;;;;6.97;2.20;;;6.60;44.40;;;;;;4974580;28;20476;-58
2022/02/05 15:20:11;;;;;;;3.23;1.97;;;6.50;45.70;;;;;;4985166;28;20425;-58
2022/02/05 15:22:37;;;;;;;4.00;2.40;;;6.40;47.70;;;;;;4976929;28;20752;-56
2022/02/05 15:25:04;;;;;;;5.60;2.50;;;6.40;49.10;;;;;;4980551;28;20441;-57
2022/02/05 15:27:29;;;;;;;8.90;3.67;;;6.30;50.30;;;;;;4981796;28;20298;-57
2022/02/05 15:29:55;;;;;;;4.50;2.57;;;6.20;51.00;;;;;;4983524;28;20608;-57
2022/02/05 15:32:21;;;;;;;3.63;2.70;;;6.10;51.70;;;;;;4973962;28;20260;-58
2022/02/05 15:34:47;;;;;;;4.47;2.53;;;6.10;52.20;;;;;;4987044;28;20289;-56
2022/02/05 15:37:23;;;;;;;4.57;2.70;;;6.10;52.60;;;;;;4979613;28;20228;-57
2022/02/05 15:43:27;;;;;;;6.83;2.83;;;6.00;52.90;;;;;;4975208;28;20738;-55
2022/02/05 15:45:18;;;;;;;6.90;3.10;;;5.90;53.80;;;;;;4980718;28;20427;-57
2022/02/05 15:47:44;;;;;;;3.67;2.80;;;5.80;54.10;;;;;;4973623;28;20432;-57
2022/02/05 15:50:12;;;;;;;4.60;3.00;;;5.80;54.50;;;;;;4979671;28;20673;-57
2022/02/05 15:52:38;;;;;;;3.80;2.80;;;5.80;54.60;;;;;;4972637;28;20210;-56
2022/02/05 15:55:04;;;;;;;5.13;2.63;;;5.80;55.20;;;;;;4978175;28;20448;-57
2022/02/05 15:58:20;;;;;;;6.13;3.03;;;5.70;55.20;;;;;;4981862;28;20198;-56
2022/02/05 16:00:23;;;;;;;8.83;3.17;;;5.70;55.20;;;;;;4968185;28;20479;-55
2022/02/05 16:02:49;;;;;;;10.97;2.77;;;5.70;55.50;;;;;;4977177;28;20421;-55
2022/02/05 16:05:15;;;;;;;8.50;2.67;;;5.70;55.70;;;;;;4977015;28;20534;-56
2022/02/05 16:07:40;;;;;;;5.80;2.63;;;5.70;55.90;;;;;;4984601;28;20680;-55
2022/02/05 16:10:07;;;;;;;4.93;3.67;;;5.60;56.00;;;;;;4978900;28;20236;-54
2022/02/05 16:12:32;;;;;;;10.80;3.20;;;5.50;56.20;;;;;;4985451;28;20221;-54
2022/02/05 16:14:58;;;;;;;5.70;3.03;;;5.50;56.40;;;;;;4989817;28;20444;-56
2022/02/05 16:17:24;;;;;;;5.87;3.20;;;5.40;56.50;;;;;;4995009;28;20192;-55
2022/02/05 16:19:51;;;;;;;6.77;3.07;;;5.40;56.70;;;;;;4988971;28;20173;-55
2022/02/05 16:22:17;;;;;;;7.07;3.70;;;5.30;56.80;;;;;;4987670;28;20200;-56
2022/02/05 16:24:43;;;;;;;4.77;2.67;;;5.30;57.20;;;;;;4989700;28;20428;-55
2022/02/05 16:27:09;;;;;;;5.53;3.00;;;5.20;57.20;;;;;;4987148;28;20659;-56
2022/02/05 16:29:34;;;;;;;4.80;2.90;;;5.20;57.30;;;;;;4985247;28;20463;-55
2022/02/05 16:32:01;;;;;;;8.70;3.10;;;5.10;57.30;;;;;;4989243;28;20224;-61
2022/02/05 16:34:30;;;;;;;6.37;3.10;;;5.00;57.10;;;;;;4993192;28;20221;-55
2022/02/05 16:36:56;;;;;;;5.57;2.70;;;5.00;57.00;;;;;;4989617;28;20550;-55
2022/02/05 16:39:27;;;;;;;3.77;2.77;;;4.90;56.70;;;;;;4987089;28;20428;-54
2022/02/05 16:41:55;;;;;;;3.80;2.40;;;4.80;56.10;;;;;;4988459;28;20181;-56